sensor_id;sensor_type;location;lat;lon;timestamp;P1;durP1;ratioP1;P2;durP2;ratioP2
74892;SDS011;63446;56.272;43.922;2023-12-20T00:00:08;4.68;;;1.60;;
74892;SDS011;63446;56.272;43.922;2023-12-20T00:02:34;3.72;;;1.20;;
74892;SDS011;63446;56.272;43.922;2023-12-20T00:05:00;4.20;;;1.30;;
74892;SDS011;63446;56.272;43.922;2023-12-20T00:07:28;5.05;;;1.30;;
74892;SDS011;63446;56.272;43.922;2023-12-20T00:09:54;4.03;;;1.40;;
74892;SDS011;63446;56.272;43.922;2023-12-20T00:12:20;5.67;;;1.50;;
74892;SDS011;63446;56.272;43.922;2023-12-20T00:14:46;4.78;;;1.67;;
74892;SDS011;63446;56.272;43.922;2023-12-20T00:17:11;5.00;;;1.40;;
74892;SDS011;63446;56.272;43.922;2023-12-20T00:19:37;3.80;;;1.40;;
74892;SDS011;63446;56.272;43.922;2023-12-20T00:22:03;4.22;;;1.35;;
74892;SDS011;63446;56.272;43.922;2023-12-20T00:24:29;4.00;;;1.40;;
74892;SDS011;63446;56.272;43.922;2023-12-20T00:26:55;3.63;;;1.30;;
74892;SDS011;63446;56.272;43.922;2023-12-20T00:29:21;3.73;;;1.30;;
74892;SDS011;63446;56.272;43.922;2023-12-20T00:31:46;5.57;;;1.33;;
74892;SDS011;63446;56.272;43.922;2023-12-20T00:34:12;3.73;;;1.20;;
74892;SDS011;63446;56.272;43.922;2023-12-20T00:36:38;4.05;;;1.10;;
74892;SDS011;63446;56.272;43.922;2023-12-20T00:39:05;3.20;;;1.20;;
74892;SDS011;63446;56.272;43.922;2023-12-20T00:41:32;4.53;;;1.20;;
74892;SDS011;63446;56.272;43.922;2023-12-20T00:43:57;4.18;;;1.30;;
74892;SDS011;63446;56.272;43.922;2023-12-20T00:46:23;2.97;;;0.93;;
74892;SDS011;63446;56.272;43.922;2023-12-20T00:48:49;4.22;;;1.63;;
74892;SDS011;63446;56.272;43.922;2023-12-20T00:51:15;3.03;;;1.20;;
74892;SDS011;63446;56.272;43.922;2023-12-20T00:53:41;3.17;;;1.20;;
74892;SDS011;63446;56.272;43.922;2023-12-20T00:56:08;3.65;;;1.27;;
74892;SDS011;63446;56.272;43.922;2023-12-20T00:58:34;3.10;;;1.13;;
74892;SDS011;63446;56.272;43.922;2023-12-20T01:01:00;3.03;;;1.10;;
74892;SDS011;63446;56.272;43.922;2023-12-20T01:03:26;3.75;;;1.05;;
74892;SDS011;63446;56.272;43.922;2023-12-20T01:05:52;3.70;;;1.27;;
74892;SDS011;63446;56.272;43.922;2023-12-20T01:08:19;3.30;;;1.10;;
74892;SDS011;63446;56.272;43.922;2023-12-20T01:10:45;4.38;;;1.42;;
74892;SDS011;63446;56.272;43.922;2023-12-20T01:13:12;5.28;;;1.40;;
74892;SDS011;63446;56.272;43.922;2023-12-20T01:15:38;4.28;;;1.55;;
74892;SDS011;63446;56.272;43.922;2023-12-20T01:18:05;4.80;;;1.63;;
74892;SDS011;63446;56.272;43.922;2023-12-20T01:20:31;5.15;;;2.00;;
74892;SDS011;63446;56.272;43.922;2023-12-20T01:22:57;7.32;;;1.70;;
74892;SDS011;63446;56.272;43.922;2023-12-20T01:25:23;4.82;;;1.70;;
74892;SDS011;63446;56.272;43.922;2023-12-20T01:27:49;4.93;;;1.83;;
74892;SDS011;63446;56.272;43.922;2023-12-20T01:30:15;5.00;;;1.92;;
74892;SDS011;63446;56.272;43.922;2023-12-20T01:32:41;4.40;;;1.63;;
74892;SDS011;63446;56.272;43.922;2023-12-20T01:35:07;5.80;;;1.98;;
74892;SDS011;63446;56.272;43.922;2023-12-20T01:37:33;6.22;;;1.80;;
74892;SDS011;63446;56.272;43.922;2023-12-20T01:39:59;5.75;;;1.90;;
74892;SDS011;63446;56.272;43.922;2023-12-20T01:42:24;5.07;;;2.10;;
74892;SDS011;63446;56.272;43.922;2023-12-20T01:44:50;5.00;;;1.77;;
74892;SDS011;63446;56.272;43.922;2023-12-20T01:47:16;7.00;;;2.37;;
74892;SDS011;63446;56.272;43.922;2023-12-20T01:49:42;5.43;;;2.03;;
74892;SDS011;63446;56.272;43.922;2023-12-20T01:52:09;8.40;;;2.10;;
74892;SDS011;63446;56.272;43.922;2023-12-20T01:54:35;6.53;;;1.98;;
74892;SDS011;63446;56.272;43.922;2023-12-20T01:57:01;6.13;;;1.90;;
74892;SDS011;63446;56.272;43.922;2023-12-20T01:59:28;4.40;;;1.80;;
74892;SDS011;63446;56.272;43.922;2023-12-20T02:01:55;5.40;;;1.70;;
74892;SDS011;63446;56.272;43.922;2023-12-20T02:04:24;4.88;;;1.73;;
74892;SDS011;63446;56.272;43.922;2023-12-20T02:06:52;5.65;;;1.67;;
74892;SDS011;63446;56.272;43.922;2023-12-20T02:09:20;3.77;;;1.40;;
74892;SDS011;63446;56.272;43.922;2023-12-20T02:11:45;3.33;;;1.20;;
74892;SDS011;63446;56.272;43.922;2023-12-20T02:14:11;4.80;;;1.60;;
74892;SDS011;63446;56.272;43.922;2023-12-20T02:16:38;4.75;;;1.30;;
74892;SDS011;63446;56.272;43.922;2023-12-20T02:19:04;3.47;;;1.20;;
74892;SDS011;63446;56.272;43.922;2023-12-20T02:21:38;4.10;;;1.58;;
74892;SDS011;63446;56.272;43.922;2023-12-20T02:24:04;4.95;;;1.20;;
74892;SDS011;63446;56.272;43.922;2023-12-20T02:26:32;3.70;;;1.20;;
74892;SDS011;63446;56.272;43.922;2023-12-20T02:28:59;4.30;;;1.40;;
74892;SDS011;63446;56.272;43.922;2023-12-20T02:31:25;4.25;;;1.27;;
74892;SDS011;63446;56.272;43.922;2023-12-20T02:33:52;3.78;;;1.35;;
74892;SDS011;63446;56.272;43.922;2023-12-20T02:36:17;3.70;;;1.30;;
74892;SDS011;63446;56.272;43.922;2023-12-20T02:38:43;4.27;;;1.50;;
74892;SDS011;63446;56.272;43.922;2023-12-20T02:41:09;3.92;;;1.42;;
74892;SDS011;63446;56.272;43.922;2023-12-20T02:43:35;3.97;;;1.30;;
74892;SDS011;63446;56.272;43.922;2023-12-20T02:46:01;4.18;;;1.33;;
74892;SDS011;63446;56.272;43.922;2023-12-20T02:48:29;4.70;;;1.37;;
74892;SDS011;63446;56.272;43.922;2023-12-20T02:50:54;4.13;;;1.67;;
74892;SDS011;63446;56.272;43.922;2023-12-20T02:53:20;4.00;;;1.58;;
74892;SDS011;63446;56.272;43.922;2023-12-20T02:55:46;4.13;;;1.50;;
74892;SDS011;63446;56.272;43.922;2023-12-20T02:58:12;4.15;;;1.90;;
74892;SDS011;63446;56.272;43.922;2023-12-20T03:00:38;4.33;;;1.80;;
74892;SDS011;63446;56.272;43.922;2023-12-20T03:03:04;4.30;;;1.50;;
74892;SDS011;63446;56.272;43.922;2023-12-20T03:05:30;5.28;;;1.55;;
74892;SDS011;63446;56.272;43.922;2023-12-20T03:07:56;5.82;;;1.67;;
74892;SDS011;63446;56.272;43.922;2023-12-20T03:10:23;4.13;;;1.60;;
74892;SDS011;63446;56.272;43.922;2023-12-20T03:12:48;5.93;;;1.83;;
74892;SDS011;63446;56.272;43.922;2023-12-20T03:15:14;5.75;;;2.05;;
74892;SDS011;63446;56.272;43.922;2023-12-20T03:17:41;6.07;;;1.80;;
74892;SDS011;63446;56.272;43.922;2023-12-20T03:20:07;4.40;;;1.90;;
74892;SDS011;63446;56.272;43.922;2023-12-20T03:22:33;5.95;;;2.10;;
74892;SDS011;63446;56.272;43.922;2023-12-20T03:25:00;5.03;;;2.08;;
74892;SDS011;63446;56.272;43.922;2023-12-20T03:27:29;6.13;;;2.05;;
74892;SDS011;63446;56.272;43.922;2023-12-20T03:29:55;5.97;;;2.00;;
74892;SDS011;63446;56.272;43.922;2023-12-20T03:32:21;4.13;;;1.60;;
74892;SDS011;63446;56.272;43.922;2023-12-20T03:34:47;4.85;;;1.90;;
74892;SDS011;63446;56.272;43.922;2023-12-20T03:37:13;6.37;;;1.93;;
74892;SDS011;63446;56.272;43.922;2023-12-20T03:39:39;4.63;;;1.60;;
74892;SDS011;63446;56.272;43.922;2023-12-20T03:42:05;4.20;;;1.50;;
74892;SDS011;63446;56.272;43.922;2023-12-20T03:44:31;6.10;;;1.63;;
74892;SDS011;63446;56.272;43.922;2023-12-20T03:46:57;4.28;;;1.70;;
74892;SDS011;63446;56.272;43.922;2023-12-20T03:49:22;3.80;;;1.50;;
74892;SDS011;63446;56.272;43.922;2023-12-20T03:51:49;4.35;;;1.65;;
74892;SDS011;63446;56.272;43.922;2023-12-20T03:54:14;4.47;;;1.73;;
74892;SDS011;63446;56.272;43.922;2023-12-20T03:56:40;4.97;;;1.70;;
74892;SDS011;63446;56.272;43.922;2023-12-20T03:59:06;5.20;;;1.80;;
74892;SDS011;63446;56.272;43.922;2023-12-20T04:01:32;4.47;;;1.67;;
74892;SDS011;63446;56.272;43.922;2023-12-20T04:03:58;6.85;;;2.13;;
74892;SDS011;63446;56.272;43.922;2023-12-20T04:06:23;6.97;;;2.20;;
74892;SDS011;63446;56.272;43.922;2023-12-20T04:08:49;5.57;;;2.22;;
74892;SDS011;63446;56.272;43.922;2023-12-20T04:11:15;4.83;;;2.00;;
74892;SDS011;63446;56.272;43.922;2023-12-20T04:13:41;7.43;;;2.42;;
74892;SDS011;63446;56.272;43.922;2023-12-20T04:16:07;7.65;;;2.20;;
74892;SDS011;63446;56.272;43.922;2023-12-20T04:18:33;6.97;;;2.23;;
74892;SDS011;63446;56.272;43.922;2023-12-20T04:20:59;6.70;;;2.28;;
74892;SDS011;63446;56.272;43.922;2023-12-20T04:23:24;10.48;;;2.08;;
74892;SDS011;63446;56.272;43.922;2023-12-20T04:25:50;9.52;;;2.17;;
74892;SDS011;63446;56.272;43.922;2023-12-20T04:28:17;5.55;;;2.00;;
74892;SDS011;63446;56.272;43.922;2023-12-20T04:30:43;6.60;;;1.90;;
74892;SDS011;63446;56.272;43.922;2023-12-20T04:33:08;7.13;;;2.10;;
74892;SDS011;63446;56.272;43.922;2023-12-20T04:35:35;5.32;;;1.73;;
74892;SDS011;63446;56.272;43.922;2023-12-20T04:38:00;5.03;;;1.80;;
74892;SDS011;63446;56.272;43.922;2023-12-20T04:40:26;5.60;;;1.60;;
74892;SDS011;63446;56.272;43.922;2023-12-20T04:42:52;5.37;;;1.87;;
74892;SDS011;63446;56.272;43.922;2023-12-20T04:45:18;5.38;;;1.58;;
74892;SDS011;63446;56.272;43.922;2023-12-20T04:47:45;5.68;;;2.00;;
74892;SDS011;63446;56.272;43.922;2023-12-20T04:50:12;4.63;;;1.60;;
74892;SDS011;63446;56.272;43.922;2023-12-20T04:52:38;6.82;;;1.83;;
74892;SDS011;63446;56.272;43.922;2023-12-20T04:55:04;7.57;;;1.65;;
74892;SDS011;63446;56.272;43.922;2023-12-20T04:57:30;5.65;;;1.95;;
74892;SDS011;63446;56.272;43.922;2023-12-20T04:59:56;5.50;;;2.17;;
74892;SDS011;63446;56.272;43.922;2023-12-20T05:02:22;4.35;;;1.88;;
74892;SDS011;63446;56.272;43.922;2023-12-20T05:04:48;7.43;;;1.83;;
74892;SDS011;63446;56.272;43.922;2023-12-20T05:07:14;8.23;;;2.25;;
74892;SDS011;63446;56.272;43.922;2023-12-20T05:09:39;7.43;;;2.10;;
74892;SDS011;63446;56.272;43.922;2023-12-20T05:12:05;4.93;;;1.93;;
74892;SDS011;63446;56.272;43.922;2023-12-20T05:14:31;4.75;;;1.95;;
74892;SDS011;63446;56.272;43.922;2023-12-20T05:16:57;19.67;;;9.35;;
74892;SDS011;63446;56.272;43.922;2023-12-20T05:19:24;4.97;;;2.27;;
74892;SDS011;63446;56.272;43.922;2023-12-20T05:21:50;5.53;;;2.00;;
74892;SDS011;63446;56.272;43.922;2023-12-20T05:24:17;5.50;;;2.20;;
74892;SDS011;63446;56.272;43.922;2023-12-20T05:26:43;5.75;;;2.00;;
74892;SDS011;63446;56.272;43.922;2023-12-20T05:29:09;6.20;;;1.97;;
74892;SDS011;63446;56.272;43.922;2023-12-20T05:31:34;4.78;;;1.77;;
74892;SDS011;63446;56.272;43.922;2023-12-20T05:34:00;6.07;;;2.00;;
74892;SDS011;63446;56.272;43.922;2023-12-20T05:36:26;5.95;;;2.17;;
74892;SDS011;63446;56.272;43.922;2023-12-20T05:38:53;6.70;;;2.30;;
74892;SDS011;63446;56.272;43.922;2023-12-20T05:41:20;5.40;;;2.15;;
74892;SDS011;63446;56.272;43.922;2023-12-20T05:43:47;9.77;;;2.50;;
74892;SDS011;63446;56.272;43.922;2023-12-20T05:46:13;6.43;;;2.50;;
74892;SDS011;63446;56.272;43.922;2023-12-20T05:48:38;7.47;;;2.78;;
74892;SDS011;63446;56.272;43.922;2023-12-20T05:51:07;6.57;;;2.50;;
74892;SDS011;63446;56.272;43.922;2023-12-20T05:53:37;7.45;;;2.67;;
74892;SDS011;63446;56.272;43.922;2023-12-20T05:56:03;11.00;;;2.80;;
74892;SDS011;63446;56.272;43.922;2023-12-20T05:58:30;10.15;;;3.17;;
74892;SDS011;63446;56.272;43.922;2023-12-20T06:00:57;9.63;;;2.70;;
74892;SDS011;63446;56.272;43.922;2023-12-20T06:03:23;6.70;;;2.70;;
74892;SDS011;63446;56.272;43.922;2023-12-20T06:05:49;8.43;;;2.67;;
74892;SDS011;63446;56.272;43.922;2023-12-20T06:08:14;9.90;;;3.60;;
74892;SDS011;63446;56.272;43.922;2023-12-20T06:10:40;15.00;;;4.40;;
74892;SDS011;63446;56.272;43.922;2023-12-20T06:13:06;15.10;;;4.77;;
74892;SDS011;63446;56.272;43.922;2023-12-20T06:15:34;14.32;;;5.20;;
74892;SDS011;63446;56.272;43.922;2023-12-20T06:18:00;14.82;;;5.10;;
74892;SDS011;63446;56.272;43.922;2023-12-20T06:20:27;14.05;;;5.20;;
74892;SDS011;63446;56.272;43.922;2023-12-20T06:22:53;12.23;;;5.43;;
74892;SDS011;63446;56.272;43.922;2023-12-20T06:25:19;15.48;;;6.40;;
74892;SDS011;63446;56.272;43.922;2023-12-20T06:27:45;16.65;;;6.22;;
74892;SDS011;63446;56.272;43.922;2023-12-20T06:30:15;16.63;;;6.60;;
74892;SDS011;63446;56.272;43.922;2023-12-20T06:32:41;15.85;;;6.22;;
74892;SDS011;63446;56.272;43.922;2023-12-20T06:35:09;18.60;;;6.25;;
74892;SDS011;63446;56.272;43.922;2023-12-20T06:37:35;19.40;;;5.85;;
74892;SDS011;63446;56.272;43.922;2023-12-20T06:40:01;13.87;;;4.40;;
74892;SDS011;63446;56.272;43.922;2023-12-20T06:42:30;10.10;;;4.35;;
74892;SDS011;63446;56.272;43.922;2023-12-20T06:44:55;11.87;;;4.07;;
74892;SDS011;63446;56.272;43.922;2023-12-20T06:47:22;10.32;;;3.53;;
74892;SDS011;63446;56.272;43.922;2023-12-20T06:49:48;8.77;;;3.00;;
74892;SDS011;63446;56.272;43.922;2023-12-20T06:52:14;8.70;;;2.75;;
74892;SDS011;63446;56.272;43.922;2023-12-20T06:54:40;9.17;;;3.40;;
74892;SDS011;63446;56.272;43.922;2023-12-20T06:57:05;10.35;;;3.03;;
74892;SDS011;63446;56.272;43.922;2023-12-20T06:59:31;7.33;;;2.53;;
74892;SDS011;63446;56.272;43.922;2023-12-20T07:01:58;7.57;;;2.55;;
74892;SDS011;63446;56.272;43.922;2023-12-20T07:04:24;6.97;;;2.65;;
74892;SDS011;63446;56.272;43.922;2023-12-20T07:06:50;8.27;;;2.47;;
74892;SDS011;63446;56.272;43.922;2023-12-20T07:09:23;7.88;;;2.30;;
74892;SDS011;63446;56.272;43.922;2023-12-20T07:11:48;5.73;;;2.10;;
74892;SDS011;63446;56.272;43.922;2023-12-20T07:14:14;7.18;;;2.13;;
74892;SDS011;63446;56.272;43.922;2023-12-20T07:16:40;6.80;;;2.10;;
74892;SDS011;63446;56.272;43.922;2023-12-20T07:19:06;6.13;;;2.15;;
74892;SDS011;63446;56.272;43.922;2023-12-20T07:21:31;5.27;;;2.23;;
74892;SDS011;63446;56.272;43.922;2023-12-20T07:23:57;7.63;;;2.40;;
74892;SDS011;63446;56.272;43.922;2023-12-20T07:26:23;5.07;;;2.17;;
74892;SDS011;63446;56.272;43.922;2023-12-20T07:28:49;7.35;;;2.40;;
74892;SDS011;63446;56.272;43.922;2023-12-20T07:31:16;6.95;;;2.33;;
74892;SDS011;63446;56.272;43.922;2023-12-20T07:33:42;4.80;;;2.00;;
74892;SDS011;63446;56.272;43.922;2023-12-20T07:36:07;4.80;;;2.13;;
74892;SDS011;63446;56.272;43.922;2023-12-20T07:38:34;7.80;;;2.00;;
74892;SDS011;63446;56.272;43.922;2023-12-20T07:41:00;4.82;;;1.95;;
74892;SDS011;63446;56.272;43.922;2023-12-20T07:43:26;6.83;;;2.20;;
74892;SDS011;63446;56.272;43.922;2023-12-20T07:45:51;4.28;;;1.70;;
74892;SDS011;63446;56.272;43.922;2023-12-20T07:48:17;6.05;;;2.03;;
74892;SDS011;63446;56.272;43.922;2023-12-20T07:50:43;7.22;;;2.22;;
74892;SDS011;63446;56.272;43.922;2023-12-20T07:53:09;7.30;;;2.57;;
74892;SDS011;63446;56.272;43.922;2023-12-20T07:55:35;7.68;;;2.45;;
74892;SDS011;63446;56.272;43.922;2023-12-20T07:58:01;6.43;;;2.30;;
74892;SDS011;63446;56.272;43.922;2023-12-20T08:00:27;7.93;;;2.60;;
74892;SDS011;63446;56.272;43.922;2023-12-20T08:02:53;8.70;;;2.78;;
74892;SDS011;63446;56.272;43.922;2023-12-20T08:05:19;7.50;;;2.80;;
74892;SDS011;63446;56.272;43.922;2023-12-20T08:07:45;8.05;;;2.85;;
74892;SDS011;63446;56.272;43.922;2023-12-20T08:10:11;6.82;;;2.75;;
74892;SDS011;63446;56.272;43.922;2023-12-20T08:12:37;8.45;;;3.00;;
74892;SDS011;63446;56.272;43.922;2023-12-20T08:15:06;9.02;;;3.03;;
74892;SDS011;63446;56.272;43.922;2023-12-20T08:17:32;7.82;;;3.03;;
74892;SDS011;63446;56.272;43.922;2023-12-20T08:19:57;8.40;;;2.63;;
74892;SDS011;63446;56.272;43.922;2023-12-20T08:22:23;5.68;;;2.33;;
74892;SDS011;63446;56.272;43.922;2023-12-20T08:24:49;8.90;;;2.33;;
74892;SDS011;63446;56.272;43.922;2023-12-20T08:27:16;5.80;;;1.80;;
74892;SDS011;63446;56.272;43.922;2023-12-20T08:29:43;5.25;;;1.92;;
74892;SDS011;63446;56.272;43.922;2023-12-20T08:32:10;6.63;;;1.80;;
74892;SDS011;63446;56.272;43.922;2023-12-20T08:34:36;6.63;;;1.67;;
74892;SDS011;63446;56.272;43.922;2023-12-20T08:37:02;5.85;;;2.10;;
74892;SDS011;63446;56.272;43.922;2023-12-20T08:39:28;4.30;;;1.73;;
74892;SDS011;63446;56.272;43.922;2023-12-20T08:41:55;9.10;;;1.70;;
74892;SDS011;63446;56.272;43.922;2023-12-20T08:44:21;5.28;;;1.80;;
74892;SDS011;63446;56.272;43.922;2023-12-20T08:46:48;6.05;;;2.08;;
74892;SDS011;63446;56.272;43.922;2023-12-20T08:49:14;7.78;;;2.30;;
74892;SDS011;63446;56.272;43.922;2023-12-20T08:51:40;7.45;;;2.60;;
74892;SDS011;63446;56.272;43.922;2023-12-20T08:54:06;6.83;;;2.37;;
74892;SDS011;63446;56.272;43.922;2023-12-20T08:56:34;5.18;;;1.80;;
74892;SDS011;63446;56.272;43.922;2023-12-20T08:58:59;5.53;;;1.70;;
74892;SDS011;63446;56.272;43.922;2023-12-20T09:01:25;8.80;;;2.30;;
74892;SDS011;63446;56.272;43.922;2023-12-20T09:03:50;8.57;;;2.40;;
74892;SDS011;63446;56.272;43.922;2023-12-20T09:06:17;6.80;;;2.20;;
74892;SDS011;63446;56.272;43.922;2023-12-20T09:08:43;6.27;;;2.27;;
74892;SDS011;63446;56.272;43.922;2023-12-20T09:11:09;8.30;;;2.42;;
74892;SDS011;63446;56.272;43.922;2023-12-20T09:13:35;7.88;;;2.33;;
74892;SDS011;63446;56.272;43.922;2023-12-20T09:16:02;6.22;;;1.88;;
74892;SDS011;63446;56.272;43.922;2023-12-20T09:18:28;6.35;;;2.08;;
74892;SDS011;63446;56.272;43.922;2023-12-20T09:20:54;8.23;;;2.55;;
74892;SDS011;63446;56.272;43.922;2023-12-20T09:23:19;7.30;;;2.30;;
74892;SDS011;63446;56.272;43.922;2023-12-20T09:25:45;6.07;;;2.15;;
74892;SDS011;63446;56.272;43.922;2023-12-20T09:28:11;5.83;;;1.93;;
74892;SDS011;63446;56.272;43.922;2023-12-20T09:30:38;6.18;;;2.15;;
74892;SDS011;63446;56.272;43.922;2023-12-20T09:33:05;6.15;;;1.92;;
74892;SDS011;63446;56.272;43.922;2023-12-20T09:35:32;5.75;;;1.92;;
74892;SDS011;63446;56.272;43.922;2023-12-20T09:37:59;5.97;;;2.43;;
74892;SDS011;63446;56.272;43.922;2023-12-20T09:40:25;6.55;;;1.90;;
74892;SDS011;63446;56.272;43.922;2023-12-20T09:43:01;7.93;;;2.40;;
74892;SDS011;63446;56.272;43.922;2023-12-20T09:45:30;5.65;;;1.70;;
74892;SDS011;63446;56.272;43.922;2023-12-20T09:47:56;5.35;;;1.98;;
74892;SDS011;63446;56.272;43.922;2023-12-20T09:50:23;6.73;;;2.40;;
74892;SDS011;63446;56.272;43.922;2023-12-20T09:52:51;6.47;;;2.50;;
74892;SDS011;63446;56.272;43.922;2023-12-20T09:55:19;6.80;;;2.20;;
74892;SDS011;63446;56.272;43.922;2023-12-20T09:57:46;6.45;;;2.10;;
74892;SDS011;63446;56.272;43.922;2023-12-20T10:00:13;4.55;;;1.70;;
74892;SDS011;63446;56.272;43.922;2023-12-20T10:02:42;5.47;;;1.90;;
74892;SDS011;63446;56.272;43.922;2023-12-20T10:05:25;7.78;;;2.22;;
74892;SDS011;63446;56.272;43.922;2023-12-20T10:07:53;11.45;;;5.55;;
74892;SDS011;63446;56.272;43.922;2023-12-20T10:10:18;7.65;;;3.17;;
74892;SDS011;63446;56.272;43.922;2023-12-20T10:13:03;6.83;;;1.90;;
74892;SDS011;63446;56.272;43.922;2023-12-20T10:15:32;7.45;;;2.03;;
74892;SDS011;63446;56.272;43.922;2023-12-20T10:18:00;7.40;;;2.25;;
74892;SDS011;63446;56.272;43.922;2023-12-20T10:20:30;6.53;;;2.30;;
74892;SDS011;63446;56.272;43.922;2023-12-20T10:23:00;5.50;;;2.22;;
74892;SDS011;63446;56.272;43.922;2023-12-20T10:25:27;6.80;;;2.70;;
74892;SDS011;63446;56.272;43.922;2023-12-20T10:28:14;11.18;;;3.20;;
74892;SDS011;63446;56.272;43.922;2023-12-20T10:30:45;9.25;;;3.33;;
74892;SDS011;63446;56.272;43.922;2023-12-20T10:33:11;8.50;;;2.90;;
74892;SDS011;63446;56.272;43.922;2023-12-20T10:35:38;6.25;;;1.90;;
74892;SDS011;63446;56.272;43.922;2023-12-20T10:38:05;7.80;;;1.88;;
74892;SDS011;63446;56.272;43.922;2023-12-20T10:40:35;5.20;;;1.80;;
74892;SDS011;63446;56.272;43.922;2023-12-20T10:43:05;6.00;;;1.90;;
74892;SDS011;63446;56.272;43.922;2023-12-20T10:45:30;6.00;;;2.10;;
74892;SDS011;63446;56.272;43.922;2023-12-20T10:47:57;7.20;;;1.70;;
74892;SDS011;63446;56.272;43.922;2023-12-20T10:50:25;7.45;;;1.88;;
74892;SDS011;63446;56.272;43.922;2023-12-20T10:52:52;5.30;;;1.80;;
74892;SDS011;63446;56.272;43.922;2023-12-20T10:55:21;5.10;;;1.63;;
74892;SDS011;63446;56.272;43.922;2023-12-20T10:57:49;4.53;;;1.60;;
74892;SDS011;63446;56.272;43.922;2023-12-20T11:00:17;4.80;;;1.67;;
74892;SDS011;63446;56.272;43.922;2023-12-20T11:02:44;6.65;;;1.80;;
74892;SDS011;63446;56.272;43.922;2023-12-20T11:05:14;3.17;;;1.27;;
74892;SDS011;63446;56.272;43.922;2023-12-20T11:07:52;5.03;;;1.55;;
74892;SDS011;63446;56.272;43.922;2023-12-20T11:11:09;4.63;;;1.70;;
74892;SDS011;63446;56.272;43.922;2023-12-20T11:13:27;7.15;;;2.13;;
74892;SDS011;63446;56.272;43.922;2023-12-20T11:15:58;4.78;;;1.50;;
74892;SDS011;63446;56.272;43.922;2023-12-20T11:18:30;5.05;;;1.88;;
74892;SDS011;63446;56.272;43.922;2023-12-20T11:21:05;5.28;;;1.85;;
74892;SDS011;63446;56.272;43.922;2023-12-20T11:23:32;6.03;;;1.92;;
74892;SDS011;63446;56.272;43.922;2023-12-20T11:25:59;7.70;;;2.30;;
74892;SDS011;63446;56.272;43.922;2023-12-20T11:28:28;9.63;;;2.08;;
74892;SDS011;63446;56.272;43.922;2023-12-20T11:30:58;8.15;;;2.50;;
74892;SDS011;63446;56.272;43.922;2023-12-20T11:33:26;6.95;;;2.40;;
74892;SDS011;63446;56.272;43.922;2023-12-20T11:35:55;6.47;;;2.10;;
74892;SDS011;63446;56.272;43.922;2023-12-20T11:38:23;5.70;;;2.05;;
74892;SDS011;63446;56.272;43.922;2023-12-20T11:40:49;4.28;;;1.98;;
74892;SDS011;63446;56.272;43.922;2023-12-20T11:46:04;5.57;;;2.10;;
74892;SDS011;63446;56.272;43.922;2023-12-20T11:48:32;5.97;;;2.00;;
74892;SDS011;63446;56.272;43.922;2023-12-20T11:50:58;5.75;;;2.40;;
74892;SDS011;63446;56.272;43.922;2023-12-20T11:53:24;8.50;;;4.00;;
74892;SDS011;63446;56.272;43.922;2023-12-20T11:55:50;10.30;;;5.60;;
74892;SDS011;63446;56.272;43.922;2023-12-20T11:58:17;10.55;;;3.50;;
74892;SDS011;63446;56.272;43.922;2023-12-20T12:00:42;6.28;;;2.38;;
74892;SDS011;63446;56.272;43.922;2023-12-20T12:03:09;7.35;;;2.53;;
74892;SDS011;63446;56.272;43.922;2023-12-20T12:05:35;9.52;;;2.60;;
74892;SDS011;63446;56.272;43.922;2023-12-20T12:08:02;6.47;;;1.95;;
74892;SDS011;63446;56.272;43.922;2023-12-20T12:10:31;6.72;;;2.00;;
74892;SDS011;63446;56.272;43.922;2023-12-20T12:12:57;5.43;;;2.60;;
74892;SDS011;63446;56.272;43.922;2023-12-20T12:15:22;6.70;;;2.93;;
74892;SDS011;63446;56.272;43.922;2023-12-20T12:17:55;4.85;;;2.42;;
74892;SDS011;63446;56.272;43.922;2023-12-20T12:20:22;7.55;;;2.10;;
74892;SDS011;63446;56.272;43.922;2023-12-20T12:22:58;7.77;;;2.00;;
74892;SDS011;63446;56.272;43.922;2023-12-20T12:25:24;6.07;;;2.08;;
74892;SDS011;63446;56.272;43.922;2023-12-20T12:27:50;5.53;;;2.03;;
74892;SDS011;63446;56.272;43.922;2023-12-20T12:30:17;5.93;;;1.80;;
74892;SDS011;63446;56.272;43.922;2023-12-20T12:32:44;6.35;;;2.25;;
74892;SDS011;63446;56.272;43.922;2023-12-20T12:35:11;7.00;;;2.53;;
74892;SDS011;63446;56.272;43.922;2023-12-20T12:37:37;8.13;;;2.70;;
74892;SDS011;63446;56.272;43.922;2023-12-20T12:40:14;8.98;;;2.58;;
74892;SDS011;63446;56.272;43.922;2023-12-20T12:42:42;9.10;;;2.60;;
74892;SDS011;63446;56.272;43.922;2023-12-20T12:45:09;9.50;;;3.00;;
74892;SDS011;63446;56.272;43.922;2023-12-20T12:47:37;8.75;;;2.55;;
74892;SDS011;63446;56.272;43.922;2023-12-20T12:50:04;6.28;;;2.65;;
74892;SDS011;63446;56.272;43.922;2023-12-20T12:52:31;9.68;;;2.90;;
74892;SDS011;63446;56.272;43.922;2023-12-20T12:54:57;7.13;;;2.70;;
74892;SDS011;63446;56.272;43.922;2023-12-20T12:57:23;10.43;;;2.85;;
74892;SDS011;63446;56.272;43.922;2023-12-20T12:59:49;8.85;;;2.38;;
74892;SDS011;63446;56.272;43.922;2023-12-20T13:02:16;8.13;;;3.05;;
74892;SDS011;63446;56.272;43.922;2023-12-20T13:04:42;8.63;;;2.77;;
74892;SDS011;63446;56.272;43.922;2023-12-20T13:07:09;9.15;;;2.90;;
74892;SDS011;63446;56.272;43.922;2023-12-20T13:09:39;5.32;;;2.35;;
74892;SDS011;63446;56.272;43.922;2023-12-20T13:12:06;6.65;;;2.50;;
74892;SDS011;63446;56.272;43.922;2023-12-20T13:14:35;9.00;;;2.80;;
74892;SDS011;63446;56.272;43.922;2023-12-20T13:17:03;5.93;;;2.90;;
74892;SDS011;63446;56.272;43.922;2023-12-20T13:19:30;6.85;;;2.65;;
74892;SDS011;63446;56.272;43.922;2023-12-20T13:21:58;9.15;;;3.58;;
74892;SDS011;63446;56.272;43.922;2023-12-20T13:24:25;6.45;;;2.38;;
74892;SDS011;63446;56.272;43.922;2023-12-20T13:26:51;8.77;;;2.77;;
74892;SDS011;63446;56.272;43.922;2023-12-20T13:29:17;8.10;;;2.50;;
74892;SDS011;63446;56.272;43.922;2023-12-20T13:31:42;6.47;;;2.28;;
74892;SDS011;63446;56.272;43.922;2023-12-20T13:34:09;5.50;;;2.17;;
74892;SDS011;63446;56.272;43.922;2023-12-20T13:36:35;7.72;;;2.60;;
74892;SDS011;63446;56.272;43.922;2023-12-20T13:39:02;5.82;;;2.38;;
74892;SDS011;63446;56.272;43.922;2023-12-20T13:41:30;5.85;;;2.20;;
74892;SDS011;63446;56.272;43.922;2023-12-20T13:43:58;6.13;;;2.70;;
74892;SDS011;63446;56.272;43.922;2023-12-20T13:46:24;5.40;;;2.30;;
74892;SDS011;63446;56.272;43.922;2023-12-20T13:48:50;8.38;;;2.70;;
74892;SDS011;63446;56.272;43.922;2023-12-20T13:51:15;6.32;;;2.50;;
74892;SDS011;63446;56.272;43.922;2023-12-20T13:53:41;6.83;;;2.83;;
74892;SDS011;63446;56.272;43.922;2023-12-20T13:56:07;8.25;;;2.58;;
74892;SDS011;63446;56.272;43.922;2023-12-20T13:58:33;5.93;;;2.70;;
74892;SDS011;63446;56.272;43.922;2023-12-20T14:00:59;8.80;;;2.72;;
74892;SDS011;63446;56.272;43.922;2023-12-20T14:03:24;6.72;;;2.60;;
74892;SDS011;63446;56.272;43.922;2023-12-20T14:05:51;6.55;;;2.50;;
74892;SDS011;63446;56.272;43.922;2023-12-20T14:08:16;7.10;;;2.60;;
74892;SDS011;63446;56.272;43.922;2023-12-20T14:10:42;9.23;;;2.77;;
74892;SDS011;63446;56.272;43.922;2023-12-20T14:13:09;7.13;;;2.72;;
74892;SDS011;63446;56.272;43.922;2023-12-20T14:15:35;10.23;;;3.40;;
74892;SDS011;63446;56.272;43.922;2023-12-20T14:18:04;7.10;;;2.78;;
74892;SDS011;63446;56.272;43.922;2023-12-20T14:20:34;7.57;;;2.90;;
74892;SDS011;63446;56.272;43.922;2023-12-20T14:23:03;8.38;;;2.60;;
74892;SDS011;63446;56.272;43.922;2023-12-20T14:25:30;8.88;;;2.80;;
74892;SDS011;63446;56.272;43.922;2023-12-20T14:28:00;9.33;;;2.90;;
74892;SDS011;63446;56.272;43.922;2023-12-20T14:30:25;7.97;;;2.85;;
74892;SDS011;63446;56.272;43.922;2023-12-20T14:32:51;8.70;;;2.67;;